sensor_id;sensor_type;location;lat;lon;timestamp;noise_LAeq;noise_LA_min;noise_LA_max;noise_LA01;noise_LA95
67306;Laerm;57661;51.436;5.978;2022-12-20T00:00:04;28.26;27.25;29.06;;
67306;Laerm;57661;51.436;5.978;2022-12-20T00:00:15;28.26;27.39;29.06;;
67306;Laerm;57661;51.436;5.978;2022-12-20T00:00:26;28.29;27.15;29.23;;
67306;Laerm;57661;51.436;5.978;2022-12-20T00:00:36;28.28;27.23;29.30;;
67306;Laerm;57661;51.436;5.978;2022-12-20T00:00:51;28.28;27.42;29.25;;
67306;Laerm;57661;51.436;5.978;2022-12-20T00:01:08;28.26;27.21;29.07;;
67306;Laerm;57661;51.436;5.978;2022-12-20T00:01:20;28.29;27.37;29.21;;
67306;Laerm;57661;51.436;5.978;2022-12-20T00:01:34;28.28;27.32;29.41;;
67306;Laerm;57661;51.436;5.978;2022-12-20T00:01:44;28.30;27.42;29.38;;
67306;Laerm;57661;51.436;5.978;2022-12-20T00:01:54;28.30;27.15;29.24;;
67306;Laerm;57661;51.436;5.978;2022-12-20T00:02:04;28.28;27.40;29.39;;
67306;Laerm;57661;51.436;5.978;2022-12-20T00:02:14;28.28;27.33;29.14;;
67306;Laerm;57661;51.436;5.978;2022-12-20T00:02:25;28.27;27.43;29.12;;
67306;Laerm;57661;51.436;5.978;2022-12-20T00:02:35;28.27;27.33;29.25;;
67306;Laerm;57661;51.436;5.978;2022-12-20T00:02:45;28.29;27.20;29.12;;
67306;Laerm;57661;51.436;5.978;2022-12-20T00:02:56;28.29;27.29;29.12;;
67306;Laerm;57661;51.436;5.978;2022-12-20T00:03:06;28.28;27.19;29.11;;
67306;Laerm;57661;51.436;5.978;2022-12-20T00:03:16;28.25;27.45;29.47;;
67306;Laerm;57661;51.436;5.978;2022-12-20T00:03:26;28.28;27.26;29.42;;
67306;Laerm;57661;51.436;5.978;2022-12-20T00:03:36;28.30;27.45;29.04;;
67306;Laerm;57661;51.436;5.978;2022-12-20T00:03:50;28.22;27.27;29.15;;
67306;Laerm;57661;51.436;5.978;2022-12-20T00:04:02;28.29;27.34;29.40;;
67306;Laerm;57661;51.436;5.978;2022-12-20T00:04:14;28.27;27.22;29.29;;
67306;Laerm;57661;51.436;5.978;2022-12-20T00:04:24;28.28;27.34;29.14;;
67306;Laerm;57661;51.436;5.978;2022-12-20T00:04:34;28.29;27.31;29.22;;
67306;Laerm;57661;51.436;5.978;2022-12-20T00:04:44;28.25;27.37;29.15;;
67306;Laerm;57661;51.436;5.978;2022-12-20T00:04:55;28.27;27.20;29.17;;
67306;Laerm;57661;51.436;5.978;2022-12-20T00:05:05;28.34;27.42;29.69;;
67306;Laerm;57661;51.436;5.978;2022-12-20T00:05:15;28.37;27.40;29.97;;
67306;Laerm;57661;51.436;5.978;2022-12-20T00:05:25;28.26;27.35;29.24;;
67306;Laerm;57661;51.436;5.978;2022-12-20T00:05:36;28.23;27.39;29.25;;
67306;Laerm;57661;51.436;5.978;2022-12-20T00:05:47;28.30;27.15;29.26;;
67306;Laerm;57661;51.436;5.978;2022-12-20T00:05:57;28.26;27.22;29.23;;
67306;Laerm;57661;51.436;5.978;2022-12-20T00:06:08;28.29;27.25;29.00;;
67306;Laerm;57661;51.436;5.978;2022-12-20T00:06:20;28.26;27.12;29.30;;
67306;Laerm;57661;51.436;5.978;2022-12-20T00:06:30;28.32;27.12;34.65;;
67306;Laerm;57661;51.436;5.978;2022-12-20T00:06:40;28.28;26.96;29.33;;
67306;Laerm;57661;51.436;5.978;2022-12-20T00:06:51;28.25;27.24;29.11;;
67306;Laerm;57661;51.436;5.978;2022-12-20T00:07:01;28.31;27.42;29.08;;
67306;Laerm;57661;51.436;5.978;2022-12-20T00:07:11;28.30;27.22;29.22;;
67306;Laerm;57661;51.436;5.978;2022-12-20T00:07:21;28.30;27.45;29.15;;
67306;Laerm;57661;51.436;5.978;2022-12-20T00:07:31;28.33;27.39;29.13;;
67306;Laerm;57661;51.436;5.978;2022-12-20T00:07:42;28.31;27.57;29.14;;
67306;Laerm;57661;51.436;5.978;2022-12-20T00:07:52;28.31;27.24;31.75;;
67306;Laerm;57661;51.436;5.978;2022-12-20T00:08:02;28.27;27.49;29.17;;
67306;Laerm;57661;51.436;5.978;2022-12-20T00:08:12;28.28;27.38;29.03;;
67306;Laerm;57661;51.436;5.978;2022-12-20T00:08:23;28.26;27.27;29.26;;
67306;Laerm;57661;51.436;5.978;2022-12-20T00:08:33;28.29;27.38;29.07;;
67306;Laerm;57661;51.436;5.978;2022-12-20T00:08:51;28.26;27.34;29.17;;
67306;Laerm;57661;51.436;5.978;2022-12-20T00:09:02;28.27;27.18;29.16;;
67306;Laerm;57661;51.436;5.978;2022-12-20T00:09:13;28.28;27.20;29.30;;
67306;Laerm;57661;51.436;5.978;2022-12-20T00:09:23;28.27;27.24;29.36;;
67306;Laerm;57661;51.436;5.978;2022-12-20T00:09:34;28.30;27.15;29.42;;
67306;Laerm;57661;51.436;5.978;2022-12-20T00:09:44;28.27;27.36;29.09;;
67306;Laerm;57661;51.436;5.978;2022-12-20T00:09:54;28.31;27.45;29.29;;
67306;Laerm;57661;51.436;5.978;2022-12-20T00:10:05;28.25;27.19;29.00;;
67306;Laerm;57661;51.436;5.978;2022-12-20T00:10:15;28.29;27.31;29.35;;
67306;Laerm;57661;51.436;5.978;2022-12-20T00:10:25;28.27;27.11;29.11;;
67306;Laerm;57661;51.436;5.978;2022-12-20T00:10:36;28.26;27.25;29.26;;
67306;Laerm;57661;51.436;5.978;2022-12-20T00:10:47;28.30;27.47;29.10;;
67306;Laerm;57661;51.436;5.978;2022-12-20T00:10:58;28.27;27.33;29.21;;
67306;Laerm;57661;51.436;5.978;2022-12-20T00:11:09;28.29;27.48;29.26;;
67306;Laerm;57661;51.436;5.978;2022-12-20T00:11:19;28.26;27.45;29.20;;
67306;Laerm;57661;51.436;5.978;2022-12-20T00:11:30;28.27;27.33;29.09;;
67306;Laerm;57661;51.436;5.978;2022-12-20T00:11:40;28.27;27.37;29.09;;
67306;Laerm;57661;51.436;5.978;2022-12-20T00:11:50;28.28;27.24;29.29;;
67306;Laerm;57661;51.436;5.978;2022-12-20T00:12:01;28.25;27.31;29.29;;
67306;Laerm;57661;51.436;5.978;2022-12-20T00:12:11;28.28;27.13;29.25;;
67306;Laerm;57661;51.436;5.978;2022-12-20T00:12:21;28.25;27.42;29.01;;
67306;Laerm;57661;51.436;5.978;2022-12-20T00:12:31;28.26;27.44;29.03;;
67306;Laerm;57661;51.436;5.978;2022-12-20T00:12:42;28.28;27.43;29.27;;
67306;Laerm;57661;51.436;5.978;2022-12-20T00:12:52;28.26;27.27;28.98;;
67306;Laerm;57661;51.436;5.978;2022-12-20T00:13:02;28.25;27.17;29.16;;
67306;Laerm;57661;51.436;5.978;2022-12-20T00:13:12;28.27;27.16;29.09;;
67306;Laerm;57661;51.436;5.978;2022-12-20T00:13:23;28.25;27.00;29.19;;
67306;Laerm;57661;51.436;5.978;2022-12-20T00:13:33;28.25;27.34;29.27;;
67306;Laerm;57661;51.436;5.978;2022-12-20T00:13:45;28.27;27.20;29.17;;
67306;Laerm;57661;51.436;5.978;2022-12-20T00:13:55;28.28;27.18;29.16;;
67306;Laerm;57661;51.436;5.978;2022-12-20T00:14:07;28.28;27.28;29.30;;
67306;Laerm;57661;51.436;5.978;2022-12-20T00:14:17;28.28;27.12;29.11;;
67306;Laerm;57661;51.436;5.978;2022-12-20T00:14:27;28.27;27.34;29.53;;
67306;Laerm;57661;51.436;5.978;2022-12-20T00:14:37;28.29;27.27;29.19;;
67306;Laerm;57661;51.436;5.978;2022-12-20T00:14:48;28.33;27.53;29.53;;
67306;Laerm;57661;51.436;5.978;2022-12-20T00:14:58;28.33;27.61;29.24;;
67306;Laerm;57661;51.436;5.978;2022-12-20T00:15:08;28.41;27.46;36.49;;
67306;Laerm;57661;51.436;5.978;2022-12-20T00:15:18;28.30;27.44;29.15;;
67306;Laerm;57661;51.436;5.978;2022-12-20T00:15:29;28.29;27.11;29.02;;
67306;Laerm;57661;51.436;5.978;2022-12-20T00:15:40;28.58;27.18;37.49;;
67306;Laerm;57661;51.436;5.978;2022-12-20T00:15:50;37.42;28.81;42.95;;
67306;Laerm;57661;51.436;5.978;2022-12-20T00:16:13;34.41;27.57;43.77;;
67306;Laerm;57661;51.436;5.978;2022-12-20T00:16:24;28.40;27.32;29.48;;
67306;Laerm;57661;51.436;5.978;2022-12-20T00:16:35;28.27;27.39;29.23;;
67306;Laerm;57661;51.436;5.978;2022-12-20T00:16:46;28.27;27.36;29.42;;
67306;Laerm;57661;51.436;5.978;2022-12-20T00:16:56;28.29;26.96;29.28;;
67306;Laerm;57661;51.436;5.978;2022-12-20T00:17:06;28.26;27.21;29.15;;
67306;Laerm;57661;51.436;5.978;2022-12-20T00:17:16;28.27;27.22;29.13;;
67306;Laerm;57661;51.436;5.978;2022-12-20T00:17:27;28.28;27.08;29.50;;
67306;Laerm;57661;51.436;5.978;2022-12-20T00:17:37;28.27;27.13;29.45;;
67306;Laerm;57661;51.436;5.978;2022-12-20T00:17:47;28.25;27.31;29.07;;
67306;Laerm;57661;51.436;5.978;2022-12-20T00:17:58;28.26;27.46;29.13;;
67306;Laerm;57661;51.436;5.978;2022-12-20T00:18:08;28.27;27.39;29.18;;
67306;Laerm;57661;51.436;5.978;2022-12-20T00:18:18;28.32;27.44;31.76;;
67306;Laerm;57661;51.436;5.978;2022-12-20T00:18:28;28.33;27.31;29.14;;
67306;Laerm;57661;51.436;5.978;2022-12-20T00:18:39;28.25;27.26;29.15;;
67306;Laerm;57661;51.436;5.978;2022-12-20T00:18:51;28.23;27.22;29.07;;
67306;Laerm;57661;51.436;5.978;2022-12-20T00:19:03;28.27;27.33;29.13;;
67306;Laerm;57661;51.436;5.978;2022-12-20T00:19:13;28.24;27.13;29.34;;
67306;Laerm;57661;51.436;5.978;2022-12-20T00:19:24;28.30;27.42;29.32;;
67306;Laerm;57661;51.436;5.978;2022-12-20T00:19:34;28.21;27.23;28.99;;
67306;Laerm;57661;51.436;5.978;2022-12-20T00:19:44;28.24;27.47;28.99;;
67306;Laerm;57661;51.436;5.978;2022-12-20T00:19:54;28.27;27.29;29.25;;
67306;Laerm;57661;51.436;5.978;2022-12-20T00:20:05;28.28;27.15;29.34;;
67306;Laerm;57661;51.436;5.978;2022-12-20T00:20:15;28.34;27.05;29.21;;
67306;Laerm;57661;51.436;5.978;2022-12-20T00:20:26;28.31;27.33;29.14;;
67306;Laerm;57661;51.436;5.978;2022-12-20T00:20:37;34.17;27.44;44.51;;
67306;Laerm;57661;51.436;5.978;2022-12-20T00:20:47;37.47;31.71;43.04;;
67306;Laerm;57661;51.436;5.978;2022-12-20T00:20:58;36.92;30.91;42.30;;
67306;Laerm;57661;51.436;5.978;2022-12-20T00:21:09;32.36;27.59;40.26;;
67306;Laerm;57661;51.436;5.978;2022-12-20T00:21:20;28.29;27.26;29.16;;
67306;Laerm;57661;51.436;5.978;2022-12-20T00:21:31;28.29;27.18;29.21;;
67306;Laerm;57661;51.436;5.978;2022-12-20T00:21:42;28.29;27.35;29.24;;
67306;Laerm;57661;51.436;5.978;2022-12-20T00:21:52;28.27;27.32;29.34;;
67306;Laerm;57661;51.436;5.978;2022-12-20T00:22:02;28.30;27.43;29.20;;
67306;Laerm;57661;51.436;5.978;2022-12-20T00:22:13;28.26;27.39;29.24;;
67306;Laerm;57661;51.436;5.978;2022-12-20T00:22:23;28.27;27.52;29.12;;
67306;Laerm;57661;51.436;5.978;2022-12-20T00:22:33;28.28;27.24;29.21;;
67306;Laerm;57661;51.436;5.978;2022-12-20T00:22:43;28.32;27.40;29.27;;
67306;Laerm;57661;51.436;5.978;2022-12-20T00:22:54;28.30;27.23;29.20;;
67306;Laerm;57661;51.436;5.978;2022-12-20T00:23:05;28.25;27.09;29.33;;
67306;Laerm;57661;51.436;5.978;2022-12-20T00:23:15;28.31;27.26;29.12;;
67306;Laerm;57661;51.436;5.978;2022-12-20T00:23:25;28.26;27.31;29.08;;
67306;Laerm;57661;51.436;5.978;2022-12-20T00:23:36;28.25;27.26;29.11;;
67306;Laerm;57661;51.436;5.978;2022-12-20T00:23:46;28.38;27.49;33.64;;
67306;Laerm;57661;51.436;5.978;2022-12-20T00:23:57;28.27;27.38;29.22;;
67306;Laerm;57661;51.436;5.978;2022-12-20T00:24:08;28.26;27.18;29.32;;
67306;Laerm;57661;51.436;5.978;2022-12-20T00:24:19;28.25;27.37;29.20;;
67306;Laerm;57661;51.436;5.978;2022-12-20T00:24:29;28.29;27.09;29.49;;
67306;Laerm;57661;51.436;5.978;2022-12-20T00:24:42;28.24;27.31;29.17;;
67306;Laerm;57661;51.436;5.978;2022-12-20T00:24:52;28.28;27.38;29.20;;
67306;Laerm;57661;51.436;5.978;2022-12-20T00:25:03;28.26;27.33;29.12;;
67306;Laerm;57661;51.436;5.978;2022-12-20T00:25:13;28.25;27.08;29.37;;
67306;Laerm;57661;51.436;5.978;2022-12-20T00:25:24;28.27;27.48;29.10;;
67306;Laerm;57661;51.436;5.978;2022-12-20T00:25:34;28.25;27.27;29.12;;
67306;Laerm;57661;51.436;5.978;2022-12-20T00:25:44;28.25;27.18;29.10;;
67306;Laerm;57661;51.436;5.978;2022-12-20T00:26:11;28.25;27.22;29.07;;
67306;Laerm;57661;51.436;5.978;2022-12-20T00:26:23;28.26;27.18;29.32;;
67306;Laerm;57661;51.436;5.978;2022-12-20T00:26:33;28.26;27.05;29.44;;
67306;Laerm;57661;51.436;5.978;2022-12-20T00:26:44;28.26;27.05;29.16;;
67306;Laerm;57661;51.436;5.978;2022-12-20T00:26:54;28.28;27.22;29.48;;
67306;Laerm;57661;51.436;5.978;2022-12-20T00:27:04;28.27;27.21;29.14;;
67306;Laerm;57661;51.436;5.978;2022-12-20T00:27:14;28.25;27.37;29.09;;
67306;Laerm;57661;51.436;5.978;2022-12-20T00:27:25;28.27;27.51;29.16;;
67306;Laerm;57661;51.436;5.978;2022-12-20T00:27:35;28.31;27.29;29.13;;
67306;Laerm;57661;51.436;5.978;2022-12-20T00:27:46;28.31;27.12;29.17;;
67306;Laerm;57661;51.436;5.978;2022-12-20T00:27:56;28.28;27.10;29.17;;
67306;Laerm;57661;51.436;5.978;2022-12-20T00:28:06;28.28;27.41;28.94;;
67306;Laerm;57661;51.436;5.978;2022-12-20T00:28:16;28.29;27.39;29.48;;
67306;Laerm;57661;51.436;5.978;2022-12-20T00:28:27;28.27;27.26;29.27;;
67306;Laerm;57661;51.436;5.978;2022-12-20T00:28:37;28.24;27.38;29.06;;
67306;Laerm;57661;51.436;5.978;2022-12-20T00:28:48;28.28;27.37;29.32;;
67306;Laerm;57661;51.436;5.978;2022-12-20T00:28:58;28.29;27.46;29.14;;
67306;Laerm;57661;51.436;5.978;2022-12-20T00:29:09;28.27;27.16;29.19;;
67306;Laerm;57661;51.436;5.978;2022-12-20T00:29:19;28.28;27.10;29.53;;
67306;Laerm;57661;51.436;5.978;2022-12-20T00:29:29;28.26;26.98;29.18;;
67306;Laerm;57661;51.436;5.978;2022-12-20T00:29:40;28.28;27.33;29.20;;
67306;Laerm;57661;51.436;5.978;2022-12-20T00:29:50;28.29;27.44;29.34;;
67306;Laerm;57661;51.436;5.978;2022-12-20T00:30:00;28.24;27.35;29.39;;
67306;Laerm;57661;51.436;5.978;2022-12-20T00:30:10;28.27;27.29;29.06;;
67306;Laerm;57661;51.436;5.978;2022-12-20T00:30:21;28.25;27.28;29.08;;
67306;Laerm;57661;51.436;5.978;2022-12-20T00:30:31;28.29;27.32;29.06;;
67306;Laerm;57661;51.436;5.978;2022-12-20T00:30:41;28.29;27.14;29.35;;
67306;Laerm;57661;51.436;5.978;2022-12-20T00:30:52;28.24;27.08;29.23;;
67306;Laerm;57661;51.436;5.978;2022-12-20T00:31:03;28.22;27.21;29.41;;
67306;Laerm;57661;51.436;5.978;2022-12-20T00:31:15;28.51;26.67;34.59;;
67306;Laerm;57661;51.436;5.978;2022-12-20T00:31:26;28.29;27.45;29.26;;
67306;Laerm;57661;51.436;5.978;2022-12-20T00:31:37;28.27;27.22;29.15;;
67306;Laerm;57661;51.436;5.978;2022-12-20T00:31:47;28.26;27.46;29.06;;
67306;Laerm;57661;51.436;5.978;2022-12-20T00:31:58;28.26;27.29;29.17;;
67306;Laerm;57661;51.436;5.978;2022-12-20T00:32:08;28.26;27.14;29.30;;
67306;Laerm;57661;51.436;5.978;2022-12-20T00:32:18;28.27;27.14;29.15;;
67306;Laerm;57661;51.436;5.978;2022-12-20T00:32:28;28.27;27.44;29.46;;
67306;Laerm;57661;51.436;5.978;2022-12-20T00:32:39;28.29;27.22;29.13;;
67306;Laerm;57661;51.436;5.978;2022-12-20T00:32:49;28.27;27.27;29.07;;
67306;Laerm;57661;51.436;5.978;2022-12-20T00:32:59;28.23;27.32;29.20;;
67306;Laerm;57661;51.436;5.978;2022-12-20T00:33:09;28.27;27.41;29.17;;
67306;Laerm;57661;51.436;5.978;2022-12-20T00:33:20;28.27;27.31;29.09;;
67306;Laerm;57661;51.436;5.978;2022-12-20T00:33:31;28.28;27.33;29.32;;
67306;Laerm;57661;51.436;5.978;2022-12-20T00:33:43;28.26;27.26;29.26;;
67306;Laerm;57661;51.436;5.978;2022-12-20T00:33:54;28.30;27.33;29.19;;
67306;Laerm;57661;51.436;5.978;2022-12-20T00:34:05;28.27;27.30;29.20;;
67306;Laerm;57661;51.436;5.978;2022-12-20T00:34:15;28.41;27.46;34.38;;
67306;Laerm;57661;51.436;5.978;2022-12-20T00:34:25;28.26;27.30;29.63;;
67306;Laerm;57661;51.436;5.978;2022-12-20T00:34:35;28.24;27.47;29.11;;
67306;Laerm;57661;51.436;5.978;2022-12-20T00:34:45;28.27;27.35;29.33;;
67306;Laerm;57661;51.436;5.978;2022-12-20T00:34:56;28.28;27.33;29.24;;
67306;Laerm;57661;51.436;5.978;2022-12-20T00:35:06;28.27;27.28;29.35;;
67306;Laerm;57661;51.436;5.978;2022-12-20T00:35:17;28.28;27.37;29.26;;
67306;Laerm;57661;51.436;5.978;2022-12-20T00:35:27;28.26;27.44;29.24;;
67306;Laerm;57661;51.436;5.978;2022-12-20T00:35:40;28.31;27.39;29.45;;
67306;Laerm;57661;51.436;5.978;2022-12-20T00:35:50;28.27;27.48;29.27;;
67306;Laerm;57661;51.436;5.978;2022-12-20T00:36:01;28.29;27.28;29.40;;
67306;Laerm;57661;51.436;5.978;2022-12-20T00:36:11;28.28;27.17;29.08;;
67306;Laerm;57661;51.436;5.978;2022-12-20T00:36:22;28.28;27.18;29.24;;
67306;Laerm;57661;51.436;5.978;2022-12-20T00:36:33;28.28;27.37;29.27;;
67306;Laerm;57661;51.436;5.978;2022-12-20T00:36:43;28.29;27.12;29.21;;
67306;Laerm;57661;51.436;5.978;2022-12-20T00:36:53;28.26;27.30;29.24;;
67306;Laerm;57661;51.436;5.978;2022-12-20T00:37:03;28.29;27.19;29.21;;
67306;Laerm;57661;51.436;5.978;2022-12-20T00:37:13;28.33;27.32;29.39;;
67306;Laerm;57661;51.436;5.978;2022-12-20T00:37:24;28.27;27.29;29.13;;
67306;Laerm;57661;51.436;5.978;2022-12-20T00:37:34;28.24;27.25;29.15;;
67306;Laerm;57661;51.436;5.978;2022-12-20T00:37:44;28.27;27.24;29.27;;
67306;Laerm;57661;51.436;5.978;2022-12-20T00:37:55;28.34;27.34;29.46;;
67306;Laerm;57661;51.436;5.978;2022-12-20T00:38:05;28.30;27.51;29.21;;
67306;Laerm;57661;51.436;5.978;2022-12-20T00:38:15;28.28;27.37;29.40;;
67306;Laerm;57661;51.436;5.978;2022-12-20T00:38:25;28.25;27.19;29.21;;
67306;Laerm;57661;51.436;5.978;2022-12-20T00:38:36;28.25;27.16;29.31;;
67306;Laerm;57661;51.436;5.978;2022-12-20T00:38:47;28.29;27.39;29.08;;
67306;Laerm;57661;51.436;5.978;2022-12-20T00:38:58;28.27;27.29;29.02;;
67306;Laerm;57661;51.436;5.978;2022-12-20T00:39:09;28.32;27.19;29.23;;
67306;Laerm;57661;51.436;5.978;2022-12-20T00:39:19;33.28;27.44;53.78;;
67306;Laerm;57661;51.436;5.978;2022-12-20T00:39:32;34.97;27.22;54.88;;
67306;Laerm;57661;51.436;5.978;2022-12-20T00:39:43;28.47;27.18;37.96;;
67306;Laerm;57661;51.436;5.978;2022-12-20T00:39:53;28.28;27.20;29.22;;
67306;Laerm;57661;51.436;5.978;2022-12-20T00:40:03;28.25;27.39;29.02;;
67306;Laerm;57661;51.436;5.978;2022-12-20T00:40:15;28.29;27.38;29.33;;
67306;Laerm;57661;51.436;5.978;2022-12-20T00:40:25;28.26;27.10;29.25;;
67306;Laerm;57661;51.436;5.978;2022-12-20T00:40:35;28.27;27.11;29.20;;
67306;Laerm;57661;51.436;5.978;2022-12-20T00:40:46;28.32;27.17;29.08;;
67306;Laerm;57661;51.436;5.978;2022-12-20T00:41:00;28.25;27.17;29.02;;
67306;Laerm;57661;51.436;5.978;2022-12-20T00:41:14;28.27;27.18;29.23;;
67306;Laerm;57661;51.436;5.978;2022-12-20T00:41:26;28.26;27.39;29.71;;
67306;Laerm;57661;51.436;5.978;2022-12-20T00:41:36;28.28;27.01;29.18;;
67306;Laerm;57661;51.436;5.978;2022-12-20T00:41:47;28.34;27.34;29.34;;
67306;Laerm;57661;51.436;5.978;2022-12-20T00:41:57;28.31;26.96;29.25;;
67306;Laerm;57661;51.436;5.978;2022-12-20T00:42:07;29.75;27.52;36.14;;
67306;Laerm;57661;51.436;5.978;2022-12-20T00:42:17;38.19;30.95;45.52;;
67306;Laerm;57661;51.436;5.978;2022-12-20T00:42:27;36.40;31.23;41.67;;
67306;Laerm;57661;51.436;5.978;2022-12-20T00:42:38;32.98;27.82;40.08;;
67306;Laerm;57661;51.436;5.978;2022-12-20T00:42:48;28.32;27.20;29.19;;
67306;Laerm;57661;51.436;5.978;2022-12-20T00:42:58;28.29;27.31;29.19;;
67306;Laerm;57661;51.436;5.978;2022-12-20T00:43:08;28.27;27.15;29.05;;
67306;Laerm;57661;51.436;5.978;2022-12-20T00:43:18;28.24;27.21;29.30;;
67306;Laerm;57661;51.436;5.978;2022-12-20T00:43:29;28.28;27.39;29.12;;
67306;Laerm;57661;51.436;5.978;2022-12-20T00:43:39;28.27;27.47;29.40;;
67306;Laerm;57661;51.436;5.978;2022-12-20T00:43:50;28.22;27.18;29.31;;
67306;Laerm;57661;51.436;5.978;2022-12-20T00:44:01;28.27;27.31;29.18;;
67306;Laerm;57661;51.436;5.978;2022-12-20T00:44:11;28.30;27.28;29.31;;
67306;Laerm;57661;51.436;5.978;2022-12-20T00:44:21;28.28;27.48;29.12;;
67306;Laerm;57661;51.436;5.978;2022-12-20T00:44:32;28.30;27.29;29.24;;
67306;Laerm;57661;51.436;5.978;2022-12-20T00:44:42;28.28;27.12;29.14;;
67306;Laerm;57661;51.436;5.978;2022-12-20T00:44:54;28.28;27.46;29.17;;
67306;Laerm;57661;51.436;5.978;2022-12-20T00:45:04;28.27;27.24;29.24;;
67306;Laerm;57661;51.436;5.978;2022-12-20T00:45:15;28.28;27.34;29.25;;
67306;Laerm;57661;51.436;5.978;2022-12-20T00:45:25;28.29;27.39;29.19;;
67306;Laerm;57661;51.436;5.978;2022-12-20T00:45:35;28.32;27.48;29.36;;
67306;Laerm;57661;51.436;5.978;2022-12-20T00:45:46;28.26;27.24;29.25;;
67306;Laerm;57661;51.436;5.978;2022-12-20T00:45:56;28.25;27.26;29.44;;
67306;Laerm;57661;51.436;5.978;2022-12-20T00:46:07;28.28;27.19;29.06;;
67306;Laerm;57661;51.436;5.978;2022-12-20T00:46:18;28.26;27.15;29.17;;
67306;Laerm;57661;51.436;5.978;2022-12-20T00:46:29;28.30;27.32;29.14;;
67306;Laerm;57661;51.436;5.978;2022-12-20T00:46:40;28.27;27.24;29.09;;
67306;Laerm;57661;51.436;5.978;2022-12-20T00:46:53;28.27;27.27;29.39;;
67306;Laerm;57661;51.436;5.978;2022-12-20T00:47:04;28.24;27.18;29.15;;
67306;Laerm;57661;51.436;5.978;2022-12-20T00:47:14;28.23;27.36;29.19;;
67306;Laerm;57661;51.436;5.978;2022-12-20T00:47:24;28.25;27.24;29.08;;
67306;Laerm;57661;51.436;5.978;2022-12-20T00:47:34;28.26;27.27;29.13;;
67306;Laerm;57661;51.436;5.978;2022-12-20T00:47:44;28.28;27.15;29.33;;
67306;Laerm;57661;51.436;5.978;2022-12-20T00:47:54;28.30;27.41;29.17;;
67306;Laerm;57661;51.436;5.978;2022-12-20T00:48:07;28.28;27.07;29.11;;
67306;Laerm;57661;51.436;5.978;2022-12-20T00:48:18;28.69;27.58;30.95;;
67306;Laerm;57661;51.436;5.978;2022-12-20T00:48:28;28.30;27.11;29.26;;
67306;Laerm;57661;51.436;5.978;2022-12-20T00:48:38;28.27;26.99;29.22;;
67306;Laerm;57661;51.436;5.978;2022-12-20T00:48:49;28.27;27.26;29.53;;
67306;Laerm;57661;51.436;5.978;2022-12-20T00:49:00;28.30;27.38;29.19;;
67306;Laerm;57661;51.436;5.978;2022-12-20T00:49:10;28.50;27.40;36.25;;
67306;Laerm;57661;51.436;5.978;2022-12-20T00:49:20;28.25;27.24;29.34;;
67306;Laerm;57661;51.436;5.978;2022-12-20T00:49:30;28.24;27.19;29.15;;
67306;Laerm;57661;51.436;5.978;2022-12-20T00:49:41;28.28;27.58;29.11;;
67306;Laerm;57661;51.436;5.978;2022-12-20T00:49:51;28.28;27.51;29.25;;
67306;Laerm;57661;51.436;5.978;2022-12-20T00:50:01;28.31;27.32;29.27;;
67306;Laerm;57661;51.436;5.978;2022-12-20T00:50:11;28.29;27.18;29.37;;
67306;Laerm;57661;51.436;5.978;2022-12-20T00:50:22;28.35;27.33;29.19;;
67306;Laerm;57661;51.436;5.978;2022-12-20T00:50:32;28.42;27.30;36.37;;
67306;Laerm;57661;51.436;5.978;2022-12-20T00:50:43;35.63;27.62;43.62;;
67306;Laerm;57661;51.436;5.978;2022-12-20T00:50:56;36.76;31.84;41.79;;
67306;Laerm;57661;51.436;5.978;2022-12-20T00:51:11;33.56;27.30;42.37;;
67306;Laerm;57661;51.436;5.978;2022-12-20T00:51:23;28.32;27.21;29.11;;
67306;Laerm;57661;51.436;5.978;2022-12-20T00:51:34;28.29;27.26;29.62;;
67306;Laerm;57661;51.436;5.978;2022-12-20T00:51:44;28.28;27.14;29.07;;
67306;Laerm;57661;51.436;5.978;2022-12-20T00:51:54;28.27;27.50;29.05;;
67306;Laerm;57661;51.436;5.978;2022-12-20T00:52:05;28.27;27.30;29.21;;
67306;Laerm;57661;51.436;5.978;2022-12-20T00:52:15;28.29;27.15;29.12;;
67306;Laerm;57661;51.436;5.978;2022-12-20T00:52:25;28.26;27.21;29.36;;
67306;Laerm;57661;51.436;5.978;2022-12-20T00:52:35;28.33;27.03;29.17;;
67306;Laerm;57661;51.436;5.978;2022-12-20T00:52:45;28.28;27.30;29.17;;
67306;Laerm;57661;51.436;5.978;2022-12-20T00:52:56;28.33;27.41;29.22;;
67306;Laerm;57661;51.436;5.978;2022-12-20T00:53:06;28.29;27.40;29.38;;
67306;Laerm;57661;51.436;5.978;2022-12-20T00:53:18;28.39;27.26;30.63;;
67306;Laerm;57661;51.436;5.978;2022-12-20T00:53:29;28.25;27.35;29.16;;
67306;Laerm;57661;51.436;5.978;2022-12-20T00:53:40;28.29;27.31;29.13;;
67306;Laerm;57661;51.436;5.978;2022-12-20T00:53:50;28.30;27.41;29.34;;
67306;Laerm;57661;51.436;5.978;2022-12-20T00:54:01;28.26;27.28;29.10;;
67306;Laerm;57661;51.436;5.978;2022-12-20T00:54:11;28.28;27.45;29.40;;
67306;Laerm;57661;51.436;5.978;2022-12-20T00:54:21;28.27;27.31;29.15;;
67306;Laerm;57661;51.436;5.978;2022-12-20T00:54:31;28.28;27.40;28.98;;
67306;Laerm;57661;51.436;5.978;2022-12-20T00:54:42;28.28;27.39;29.06;;
67306;Laerm;57661;51.436;5.978;2022-12-20T00:54:52;28.29;27.43;29.90;;
67306;Laerm;57661;51.436;5.978;2022-12-20T00:55:02;28.29;27.32;29.31;;
67306;Laerm;57661;51.436;5.978;2022-12-20T00:55:13;28.30;27.32;29.21;;
67306;Laerm;57661;51.436;5.978;2022-12-20T00:55:23;28.27;27.36;29.30;;
67306;Laerm;57661;51.436;5.978;2022-12-20T00:55:34;28.35;27.29;29.41;;
67306;Laerm;57661;51.436;5.978;2022-12-20T00:55:44;28.35;27.30;29.28;;
67306;Laerm;57661;51.436;5.978;2022-12-20T00:55:55;28.53;27.35;30.54;;
67306;Laerm;57661;51.436;5.978;2022-12-20T00:56:06;28.43;27.49;29.47;;
67306;Laerm;57661;51.436;5.978;2022-12-20T00:56:16;28.37;27.25;29.52;;
67306;Laerm;57661;51.436;5.978;2022-12-20T00:56:26;28.52;27.48;30.34;;
67306;Laerm;57661;51.436;5.978;2022-12-20T00:56:36;28.47;27.50;30.02;;
67306;Laerm;57661;51.436;5.978;2022-12-20T00:56:47;28.56;27.74;30.56;;
67306;Laerm;57661;51.436;5.978;2022-12-20T00:56:57;28.36;27.44;29.17;;
67306;Laerm;57661;51.436;5.978;2022-12-20T00:57:07;28.46;27.27;29.49;;
67306;Laerm;57661;51.436;5.978;2022-12-20T00:57:17;36.87;27.62;47.38;;
67306;Laerm;57661;51.436;5.978;2022-12-20T00:57:27;28.41;27.47;29.25;;
67306;Laerm;57661;51.436;5.978;2022-12-20T00:57:38;28.31;27.33;29.36;;
67306;Laerm;57661;51.436;5.978;2022-12-20T00:57:48;28.33;27.38;29.13;;
67306;Laerm;57661;51.436;5.978;2022-12-20T00:57:58;28.28;27.12;29.05;;
67306;Laerm;57661;51.436;5.978;2022-12-20T00:58:09;28.24;27.20;29.42;;
67306;Laerm;57661;51.436;5.978;2022-12-20T00:58:19;28.28;27.45;29.25;;
67306;Laerm;57661;51.436;5.978;2022-12-20T00:58:30;28.31;27.27;29.28;;
67306;Laerm;57661;51.436;5.978;2022-12-20T00:58:41;28.27;27.02;29.24;;
67306;Laerm;57661;51.436;5.978;2022-12-20T00:58:52;28.26;27.24;29.38;;
67306;Laerm;57661;51.436;5.978;2022-12-20T00:59:03;28.26;27.29;29.14;;
67306;Laerm;57661;51.436;5.978;2022-12-20T00:59:13;28.97;27.36;33.75;;
67306;Laerm;57661;51.436;5.978;2022-12-20T00:59:26;28.26;27.37;29.11;;
67306;Laerm;57661;51.436;5.978;2022-12-20T00:59:36;28.26;27.26;29.19;;
67306;Laerm;57661;51.436;5.978;2022-12-20T00:59:46;28.28;27.22;29.30;;
67306;Laerm;57661;51.436;5.978;2022-12-20T00:59:57;28.28;27.52;29.09;;